CheckWX is a tool to help pilots better visualize weather data.  It is not intended as a substitute for an official pre-flight weather briefing.

14:39:18 UTC

1J0 METAR
Tri-County Airport
Bonifay, Florida, USA
Current

12 mins ago

K1J0 261427Z AUTO VRB05KT 10SM FEW013 SCT022 21/17 A2992 RMK AO2 T02060167
Observed
Apr-26 @ 14:27 UTC
Wind
  • Variable at 5 KTS
Visibility
10 SM
Flight Rules
VFR
Cloud Levels
  • Few at 1,300' AGL
  • Scattered at 2,200' AGL
Temperature
21°C / 70°F
Dewpoint
17°C / 63°F
Humidity
78%
Altimeter
29.92" Hg
Pressure
1013.22 hPa
Previous

29 mins ago

K1J0 261410Z AUTO VRB03KT 10SM SCT014 OVC021 19/17 A2992 RMK AO2 T01940172
Observed
Apr-26 @ 14:10 UTC
Wind
  • Variable at 3 KTS
Visibility
10 SM
Flight Rules
MVFR
Cloud Levels
  • Scattered at 1,400' AGL
  • Overcast at 2,100' AGL
Temperature
19°C / 66°F
Dewpoint
17°C / 63°F
Humidity
88%
Altimeter
29.92" Hg
Pressure
1013.22 hPa
Previous

41 mins ago

K1J0 261358Z AUTO 00000KT 10SM BKN014 OVC021 19/17 A2991 RMK AO2 SLP087 T01890172
Observed
Apr-26 @ 13:58 UTC
Visibility
10 SM
Flight Rules
MVFR
Cloud Levels
  • Broken at 1,400' AGL
  • Overcast at 2,100' AGL
Temperature
19°C / 66°F
Dewpoint
17°C / 63°F
Humidity
88%
Altimeter
29.91" Hg
Pressure
1012.92 hPa